sensor_id;sensor_type;location;lat;lon;timestamp;P1;durP1;ratioP1;P2;durP2;ratioP2
20118;SDS011;10220;42.716;23.306;2022-12-10T00:01:26;4.38;;;3.13;;
20118;SDS011;10220;42.716;23.306;2022-12-10T00:03:52;3.75;;;2.00;;
20118;SDS011;10220;42.716;23.306;2022-12-10T00:06:20;7.22;;;2.63;;
20118;SDS011;10220;42.716;23.306;2022-12-10T00:08:47;3.08;;;2.30;;
20118;SDS011;10220;42.716;23.306;2022-12-10T00:11:14;6.68;;;3.00;;
20118;SDS011;10220;42.716;23.306;2022-12-10T00:13:43;5.10;;;2.63;;
20118;SDS011;10220;42.716;23.306;2022-12-10T00:16:10;8.63;;;2.33;;
20118;SDS011;10220;42.716;23.306;2022-12-10T00:18:36;7.75;;;2.10;;
20118;SDS011;10220;42.716;23.306;2022-12-10T00:21:03;6.38;;;2.63;;
20118;SDS011;10220;42.716;23.306;2022-12-10T00:23:33;10.40;;;2.97;;
20118;SDS011;10220;42.716;23.306;2022-12-10T00:26:07;3.67;;;3.05;;
20118;SDS011;10220;42.716;23.306;2022-12-10T00:28:37;5.70;;;3.03;;
20118;SDS011;10220;42.716;23.306;2022-12-10T00:31:05;3.42;;;2.70;;
20118;SDS011;10220;42.716;23.306;2022-12-10T00:33:31;3.53;;;1.42;;
20118;SDS011;10220;42.716;23.306;2022-12-10T00:36:00;4.93;;;3.40;;
20118;SDS011;10220;42.716;23.306;2022-12-10T00:38:27;3.08;;;1.85;;
20118;SDS011;10220;42.716;23.306;2022-12-10T00:40:53;4.38;;;2.28;;
20118;SDS011;10220;42.716;23.306;2022-12-10T00:43:18;2.22;;;1.75;;
20118;SDS011;10220;42.716;23.306;2022-12-10T00:45:44;5.15;;;2.88;;
20118;SDS011;10220;42.716;23.306;2022-12-10T00:48:09;3.70;;;2.10;;
20118;SDS011;10220;42.716;23.306;2022-12-10T00:50:34;5.10;;;1.95;;
20118;SDS011;10220;42.716;23.306;2022-12-10T00:53:00;2.03;;;1.55;;
20118;SDS011;10220;42.716;23.306;2022-12-10T00:55:25;3.25;;;2.35;;
20118;SDS011;10220;42.716;23.306;2022-12-10T00:57:51;5.82;;;2.88;;
20118;SDS011;10220;42.716;23.306;2022-12-10T01:00:16;4.97;;;2.28;;
20118;SDS011;10220;42.716;23.306;2022-12-10T01:02:42;3.10;;;1.88;;
20118;SDS011;10220;42.716;23.306;2022-12-10T01:05:07;2.70;;;1.95;;
20118;SDS011;10220;42.716;23.306;2022-12-10T01:07:33;3.13;;;1.77;;
20118;SDS011;10220;42.716;23.306;2022-12-10T01:09:58;3.58;;;2.67;;
20118;SDS011;10220;42.716;23.306;2022-12-10T01:12:24;5.95;;;2.40;;
20118;SDS011;10220;42.716;23.306;2022-12-10T01:14:49;7.05;;;2.15;;
20118;SDS011;10220;42.716;23.306;2022-12-10T01:17:14;1.55;;;1.42;;
20118;SDS011;10220;42.716;23.306;2022-12-10T01:19:40;5.93;;;2.88;;
20118;SDS011;10220;42.716;23.306;2022-12-10T01:22:05;2.30;;;2.08;;
20118;SDS011;10220;42.716;23.306;2022-12-10T01:24:31;4.97;;;1.88;;
20118;SDS011;10220;42.716;23.306;2022-12-10T01:26:58;6.63;;;1.50;;
20118;SDS011;10220;42.716;23.306;2022-12-10T01:29:24;7.35;;;2.53;;
20118;SDS011;10220;42.716;23.306;2022-12-10T01:31:50;3.97;;;2.53;;
20118;SDS011;10220;42.716;23.306;2022-12-10T01:34:16;4.38;;;2.30;;
20118;SDS011;10220;42.716;23.306;2022-12-10T01:36:43;4.35;;;1.95;;
20118;SDS011;10220;42.716;23.306;2022-12-10T01:39:10;5.63;;;2.38;;
20118;SDS011;10220;42.716;23.306;2022-12-10T01:41:44;5.82;;;2.58;;
20118;SDS011;10220;42.716;23.306;2022-12-10T01:46:41;6.45;;;3.35;;
20118;SDS011;10220;42.716;23.306;2022-12-10T01:49:18;13.02;;;7.18;;
20118;SDS011;10220;42.716;23.306;2022-12-10T01:51:47;3.97;;;2.80;;
20118;SDS011;10220;42.716;23.306;2022-12-10T01:54:16;4.88;;;2.22;;
20118;SDS011;10220;42.716;23.306;2022-12-10T01:56:50;7.43;;;4.45;;
20118;SDS011;10220;42.716;23.306;2022-12-10T01:59:22;9.63;;;6.75;;
20118;SDS011;10220;42.716;23.306;2022-12-10T02:07:26;11.15;;;5.80;;
20118;SDS011;10220;42.716;23.306;2022-12-10T02:10:03;4.43;;;2.92;;
20118;SDS011;10220;42.716;23.306;2022-12-10T02:12:44;4.82;;;2.78;;
20118;SDS011;10220;42.716;23.306;2022-12-10T02:15:18;4.72;;;2.22;;
20118;SDS011;10220;42.716;23.306;2022-12-10T02:17:57;2.90;;;2.63;;
20118;SDS011;10220;42.716;23.306;2022-12-10T02:20:50;2.38;;;1.80;;
20118;SDS011;10220;42.716;23.306;2022-12-10T02:24:02;5.40;;;2.75;;
20118;SDS011;10220;42.716;23.306;2022-12-10T02:31:02;4.65;;;2.55;;
20118;SDS011;10220;42.716;23.306;2022-12-10T02:33:29;4.57;;;2.45;;
20118;SDS011;10220;42.716;23.306;2022-12-10T02:35:56;4.85;;;3.30;;
20118;SDS011;10220;42.716;23.306;2022-12-10T02:38:26;5.10;;;3.25;;
20118;SDS011;10220;42.716;23.306;2022-12-10T02:40:57;6.53;;;3.15;;
20118;SDS011;10220;42.716;23.306;2022-12-10T02:43:26;9.45;;;3.90;;
20118;SDS011;10220;42.716;23.306;2022-12-10T02:45:54;6.00;;;3.63;;
20118;SDS011;10220;42.716;23.306;2022-12-10T02:48:21;4.63;;;3.05;;
20118;SDS011;10220;42.716;23.306;2022-12-10T02:50:48;9.07;;;4.13;;
20118;SDS011;10220;42.716;23.306;2022-12-10T02:53:13;5.20;;;2.88;;
20118;SDS011;10220;42.716;23.306;2022-12-10T03:01:16;5.28;;;2.78;;
20118;SDS011;10220;42.716;23.306;2022-12-10T03:03:53;7.03;;;3.22;;
20118;SDS011;10220;42.716;23.306;2022-12-10T03:06:39;4.32;;;3.30;;
20118;SDS011;10220;42.716;23.306;2022-12-10T03:09:23;8.73;;;3.30;;
20118;SDS011;10220;42.716;23.306;2022-12-10T03:12:37;5.75;;;2.53;;
20118;SDS011;10220;42.716;23.306;2022-12-10T03:14:50;5.28;;;2.92;;
20118;SDS011;10220;42.716;23.306;2022-12-10T03:17:17;5.13;;;3.15;;
20118;SDS011;10220;42.716;23.306;2022-12-10T03:19:45;4.45;;;3.08;;
20118;SDS011;10220;42.716;23.306;2022-12-10T03:22:14;7.28;;;3.55;;
20118;SDS011;10220;42.716;23.306;2022-12-10T03:24:43;3.53;;;2.33;;
20118;SDS011;10220;42.716;23.306;2022-12-10T03:27:09;6.38;;;4.25;;
20118;SDS011;10220;42.716;23.306;2022-12-10T03:29:37;4.50;;;3.97;;
20118;SDS011;10220;42.716;23.306;2022-12-10T03:32:06;5.90;;;3.83;;
20118;SDS011;10220;42.716;23.306;2022-12-10T03:34:33;5.40;;;3.22;;
20118;SDS011;10220;42.716;23.306;2022-12-10T03:37:00;3.38;;;2.30;;
20118;SDS011;10220;42.716;23.306;2022-12-10T03:39:26;15.85;;;3.95;;
20118;SDS011;10220;42.716;23.306;2022-12-10T03:41:52;5.72;;;3.13;;
20118;SDS011;10220;42.716;23.306;2022-12-10T03:44:31;6.38;;;2.35;;
20118;SDS011;10220;42.716;23.306;2022-12-10T03:46:57;9.05;;;3.20;;
20118;SDS011;10220;42.716;23.306;2022-12-10T03:49:23;8.00;;;3.63;;
20118;SDS011;10220;42.716;23.306;2022-12-10T03:51:49;22.10;;;2.53;;
20118;SDS011;10220;42.716;23.306;2022-12-10T03:54:14;4.68;;;3.33;;
20118;SDS011;10220;42.716;23.306;2022-12-10T03:56:40;5.57;;;3.35;;
20118;SDS011;10220;42.716;23.306;2022-12-10T03:59:06;5.45;;;2.78;;
20118;SDS011;10220;42.716;23.306;2022-12-10T04:01:31;3.95;;;2.85;;
20118;SDS011;10220;42.716;23.306;2022-12-10T04:03:57;4.40;;;2.33;;
20118;SDS011;10220;42.716;23.306;2022-12-10T04:06:22;5.53;;;3.15;;
20118;SDS011;10220;42.716;23.306;2022-12-10T04:08:48;8.00;;;3.28;;
20118;SDS011;10220;42.716;23.306;2022-12-10T04:11:14;4.10;;;2.70;;
20118;SDS011;10220;42.716;23.306;2022-12-10T04:13:41;10.95;;;4.05;;
20118;SDS011;10220;42.716;23.306;2022-12-10T04:16:25;5.80;;;3.08;;
20118;SDS011;10220;42.716;23.306;2022-12-10T04:18:51;7.95;;;3.85;;
20118;SDS011;10220;42.716;23.306;2022-12-10T04:21:17;5.13;;;4.25;;
20118;SDS011;10220;42.716;23.306;2022-12-10T04:24:01;10.13;;;3.97;;
20118;SDS011;10220;42.716;23.306;2022-12-10T04:26:45;3.53;;;2.90;;
20118;SDS011;10220;42.716;23.306;2022-12-10T04:29:21;8.20;;;4.60;;
20118;SDS011;10220;42.716;23.306;2022-12-10T04:31:51;9.45;;;5.00;;
20118;SDS011;10220;42.716;23.306;2022-12-10T04:34:18;8.45;;;4.65;;
20118;SDS011;10220;42.716;23.306;2022-12-10T04:36:43;10.27;;;4.22;;
20118;SDS011;10220;42.716;23.306;2022-12-10T04:39:09;7.35;;;4.15;;
20118;SDS011;10220;42.716;23.306;2022-12-10T04:41:37;10.15;;;4.90;;
20118;SDS011;10220;42.716;23.306;2022-12-10T04:44:06;7.80;;;4.30;;
20118;SDS011;10220;42.716;23.306;2022-12-10T04:46:33;9.65;;;5.18;;
20118;SDS011;10220;42.716;23.306;2022-12-10T04:48:58;7.97;;;4.35;;
20118;SDS011;10220;42.716;23.306;2022-12-10T04:51:23;12.48;;;5.75;;
20118;SDS011;10220;42.716;23.306;2022-12-10T04:53:49;6.10;;;4.88;;
20118;SDS011;10220;42.716;23.306;2022-12-10T04:56:16;6.15;;;3.63;;
20118;SDS011;10220;42.716;23.306;2022-12-10T04:58:41;11.10;;;4.45;;
20118;SDS011;10220;42.716;23.306;2022-12-10T05:01:08;11.32;;;6.57;;
20118;SDS011;10220;42.716;23.306;2022-12-10T05:03:36;17.35;;;8.85;;
20118;SDS011;10220;42.716;23.306;2022-12-10T05:06:08;24.35;;;13.73;;
20118;SDS011;10220;42.716;23.306;2022-12-10T05:08:37;7.93;;;4.88;;
20118;SDS011;10220;42.716;23.306;2022-12-10T05:11:07;14.18;;;6.00;;
20118;SDS011;10220;42.716;23.306;2022-12-10T05:13:37;7.07;;;4.57;;
20118;SDS011;10220;42.716;23.306;2022-12-10T05:16:03;7.18;;;4.82;;
20118;SDS011;10220;42.716;23.306;2022-12-10T05:18:30;7.85;;;5.20;;
20118;SDS011;10220;42.716;23.306;2022-12-10T05:20:59;10.18;;;5.13;;
20118;SDS011;10220;42.716;23.306;2022-12-10T05:23:25;8.07;;;4.47;;
20118;SDS011;10220;42.716;23.306;2022-12-10T05:26:07;5.05;;;3.65;;
20118;SDS011;10220;42.716;23.306;2022-12-10T05:28:35;8.63;;;3.92;;
20118;SDS011;10220;42.716;23.306;2022-12-10T05:31:05;4.13;;;3.33;;
20118;SDS011;10220;42.716;23.306;2022-12-10T05:33:37;5.82;;;3.58;;
20118;SDS011;10220;42.716;23.306;2022-12-10T05:36:02;5.55;;;3.80;;
20118;SDS011;10220;42.716;23.306;2022-12-10T05:38:29;7.80;;;3.90;;
20118;SDS011;10220;42.716;23.306;2022-12-10T05:41:00;4.10;;;3.10;;
20118;SDS011;10220;42.716;23.306;2022-12-10T05:43:28;13.00;;;4.68;;
20118;SDS011;10220;42.716;23.306;2022-12-10T05:45:58;5.25;;;4.03;;
20118;SDS011;10220;42.716;23.306;2022-12-10T05:48:25;8.52;;;3.70;;
20118;SDS011;10220;42.716;23.306;2022-12-10T05:50:50;4.95;;;3.90;;
20118;SDS011;10220;42.716;23.306;2022-12-10T05:53:15;6.03;;;3.78;;
20118;SDS011;10220;42.716;23.306;2022-12-10T05:55:43;8.05;;;5.35;;
20118;SDS011;10220;42.716;23.306;2022-12-10T05:58:08;5.38;;;3.83;;
20118;SDS011;10220;42.716;23.306;2022-12-10T06:00:33;5.80;;;3.95;;
20118;SDS011;10220;42.716;23.306;2022-12-10T06:02:59;5.60;;;4.20;;
20118;SDS011;10220;42.716;23.306;2022-12-10T06:05:24;11.77;;;4.50;;
20118;SDS011;10220;42.716;23.306;2022-12-10T06:07:50;10.00;;;4.63;;
20118;SDS011;10220;42.716;23.306;2022-12-10T06:10:15;8.90;;;4.70;;
20118;SDS011;10220;42.716;23.306;2022-12-10T06:12:41;5.45;;;4.13;;
20118;SDS011;10220;42.716;23.306;2022-12-10T06:15:06;7.25;;;4.78;;
20118;SDS011;10220;42.716;23.306;2022-12-10T06:17:32;13.88;;;5.65;;
20118;SDS011;10220;42.716;23.306;2022-12-10T06:19:57;6.53;;;4.43;;
20118;SDS011;10220;42.716;23.306;2022-12-10T06:22:23;6.88;;;4.00;;
20118;SDS011;10220;42.716;23.306;2022-12-10T06:24:48;10.00;;;4.70;;
20118;SDS011;10220;42.716;23.306;2022-12-10T06:27:14;5.95;;;4.18;;
20118;SDS011;10220;42.716;23.306;2022-12-10T06:29:39;6.95;;;4.05;;
20118;SDS011;10220;42.716;23.306;2022-12-10T06:32:05;6.53;;;3.78;;
20118;SDS011;10220;42.716;23.306;2022-12-10T06:34:30;5.55;;;4.15;;
20118;SDS011;10220;42.716;23.306;2022-12-10T06:36:56;4.75;;;3.70;;
20118;SDS011;10220;42.716;23.306;2022-12-10T06:39:21;7.43;;;4.18;;
20118;SDS011;10220;42.716;23.306;2022-12-10T06:41:46;6.82;;;4.88;;
20118;SDS011;10220;42.716;23.306;2022-12-10T06:44:12;4.90;;;3.63;;
20118;SDS011;10220;42.716;23.306;2022-12-10T06:46:38;4.72;;;3.33;;
20118;SDS011;10220;42.716;23.306;2022-12-10T06:49:04;6.10;;;4.78;;
20118;SDS011;10220;42.716;23.306;2022-12-10T06:51:30;6.72;;;3.70;;
20118;SDS011;10220;42.716;23.306;2022-12-10T06:53:56;13.27;;;4.90;;
20118;SDS011;10220;42.716;23.306;2022-12-10T06:56:21;9.30;;;5.07;;
20118;SDS011;10220;42.716;23.306;2022-12-10T06:58:47;9.05;;;4.85;;
20118;SDS011;10220;42.716;23.306;2022-12-10T07:01:14;5.85;;;5.25;;
20118;SDS011;10220;42.716;23.306;2022-12-10T07:03:47;4.97;;;3.42;;
20118;SDS011;10220;42.716;23.306;2022-12-10T07:06:13;8.80;;;4.32;;
20118;SDS011;10220;42.716;23.306;2022-12-10T07:08:39;4.35;;;3.53;;
20118;SDS011;10220;42.716;23.306;2022-12-10T07:11:05;5.38;;;3.97;;
20118;SDS011;10220;42.716;23.306;2022-12-10T07:13:31;5.07;;;3.65;;
20118;SDS011;10220;42.716;23.306;2022-12-10T07:15:57;5.55;;;3.42;;
20118;SDS011;10220;42.716;23.306;2022-12-10T07:18:22;9.00;;;3.78;;
20118;SDS011;10220;42.716;23.306;2022-12-10T07:20:48;8.73;;;3.85;;
20118;SDS011;10220;42.716;23.306;2022-12-10T07:23:13;7.15;;;3.60;;
20118;SDS011;10220;42.716;23.306;2022-12-10T07:25:39;7.13;;;3.80;;
20118;SDS011;10220;42.716;23.306;2022-12-10T07:28:04;6.05;;;2.88;;
20118;SDS011;10220;42.716;23.306;2022-12-10T07:30:29;8.07;;;3.40;;
20118;SDS011;10220;42.716;23.306;2022-12-10T07:32:55;5.45;;;3.35;;
20118;SDS011;10220;42.716;23.306;2022-12-10T07:35:20;7.80;;;4.45;;
20118;SDS011;10220;42.716;23.306;2022-12-10T07:37:46;9.63;;;3.88;;
20118;SDS011;10220;42.716;23.306;2022-12-10T07:40:11;5.93;;;3.78;;
20118;SDS011;10220;42.716;23.306;2022-12-10T07:42:37;4.78;;;3.67;;
20118;SDS011;10220;42.716;23.306;2022-12-10T07:45:02;3.40;;;3.10;;
20118;SDS011;10220;42.716;23.306;2022-12-10T07:47:28;3.83;;;3.42;;
20118;SDS011;10220;42.716;23.306;2022-12-10T07:49:54;4.00;;;3.22;;
20118;SDS011;10220;42.716;23.306;2022-12-10T07:52:19;5.82;;;4.45;;
20118;SDS011;10220;42.716;23.306;2022-12-10T07:54:44;7.53;;;4.65;;
20118;SDS011;10220;42.716;23.306;2022-12-10T07:57:10;14.40;;;6.65;;
20118;SDS011;10220;42.716;23.306;2022-12-10T07:59:35;6.63;;;5.75;;
20118;SDS011;10220;42.716;23.306;2022-12-10T08:02:01;7.05;;;4.75;;
20118;SDS011;10220;42.716;23.306;2022-12-10T08:04:29;4.35;;;3.45;;
20118;SDS011;10220;42.716;23.306;2022-12-10T08:06:55;5.28;;;2.90;;
20118;SDS011;10220;42.716;23.306;2022-12-10T08:09:22;6.68;;;4.00;;
20118;SDS011;10220;42.716;23.306;2022-12-10T08:11:48;6.22;;;3.75;;
20118;SDS011;10220;42.716;23.306;2022-12-10T08:14:13;4.40;;;2.63;;
20118;SDS011;10220;42.716;23.306;2022-12-10T08:16:39;5.57;;;4.03;;
20118;SDS011;10220;42.716;23.306;2022-12-10T08:19:04;5.47;;;3.63;;
20118;SDS011;10220;42.716;23.306;2022-12-10T08:21:30;5.43;;;3.67;;
20118;SDS011;10220;42.716;23.306;2022-12-10T08:23:57;5.57;;;2.95;;
20118;SDS011;10220;42.716;23.306;2022-12-10T08:26:24;6.20;;;3.42;;
20118;SDS011;10220;42.716;23.306;2022-12-10T08:28:51;6.40;;;3.28;;
20118;SDS011;10220;42.716;23.306;2022-12-10T08:31:18;4.43;;;3.63;;
20118;SDS011;10220;42.716;23.306;2022-12-10T08:33:45;4.15;;;2.95;;
20118;SDS011;10220;42.716;23.306;2022-12-10T08:36:11;5.50;;;3.30;;
20118;SDS011;10220;42.716;23.306;2022-12-10T08:38:38;5.22;;;4.15;;
20118;SDS011;10220;42.716;23.306;2022-12-10T08:41:05;4.70;;;3.47;;
20118;SDS011;10220;42.716;23.306;2022-12-10T08:43:34;5.90;;;3.63;;
20118;SDS011;10220;42.716;23.306;2022-12-10T08:46:00;8.10;;;4.40;;
20118;SDS011;10220;42.716;23.306;2022-12-10T08:48:26;8.88;;;5.53;;
20118;SDS011;10220;42.716;23.306;2022-12-10T08:50:51;6.18;;;4.57;;
20118;SDS011;10220;42.716;23.306;2022-12-10T08:53:17;4.90;;;3.60;;
20118;SDS011;10220;42.716;23.306;2022-12-10T08:55:42;9.20;;;4.97;;
20118;SDS011;10220;42.716;23.306;2022-12-10T08:58:07;11.30;;;4.50;;
20118;SDS011;10220;42.716;23.306;2022-12-10T09:00:34;6.70;;;5.60;;
20118;SDS011;10220;42.716;23.306;2022-12-10T09:02:59;3.53;;;2.33;;
20118;SDS011;10220;42.716;23.306;2022-12-10T09:05:25;4.00;;;2.88;;
20118;SDS011;10220;42.716;23.306;2022-12-10T09:07:50;4.68;;;3.25;;
20118;SDS011;10220;42.716;23.306;2022-12-10T09:10:16;8.02;;;5.20;;
20118;SDS011;10220;42.716;23.306;2022-12-10T09:12:41;4.20;;;3.20;;
20118;SDS011;10220;42.716;23.306;2022-12-10T09:15:08;6.90;;;3.60;;
20118;SDS011;10220;42.716;23.306;2022-12-10T09:17:35;10.90;;;5.72;;
20118;SDS011;10220;42.716;23.306;2022-12-10T09:20:03;6.00;;;3.63;;
20118;SDS011;10220;42.716;23.306;2022-12-10T09:22:29;9.13;;;4.47;;
20118;SDS011;10220;42.716;23.306;2022-12-10T09:24:56;11.77;;;5.60;;
20118;SDS011;10220;42.716;23.306;2022-12-10T09:27:21;13.10;;;8.00;;
20118;SDS011;10220;42.716;23.306;2022-12-10T09:29:47;18.95;;;9.68;;
20118;SDS011;10220;42.716;23.306;2022-12-10T09:32:12;9.98;;;6.53;;
20118;SDS011;10220;42.716;23.306;2022-12-10T09:34:38;4.40;;;2.58;;
20118;SDS011;10220;42.716;23.306;2022-12-10T09:37:03;4.22;;;3.53;;
20118;SDS011;10220;42.716;23.306;2022-12-10T09:39:28;7.03;;;4.05;;
20118;SDS011;10220;42.716;23.306;2022-12-10T09:41:58;5.72;;;3.05;;
20118;SDS011;10220;42.716;23.306;2022-12-10T09:47:08;4.35;;;2.60;;
20118;SDS011;10220;42.716;23.306;2022-12-10T09:52:29;7.43;;;3.50;;
20118;SDS011;10220;42.716;23.306;2022-12-10T09:55:04;8.02;;;3.30;;
20118;SDS011;10220;42.716;23.306;2022-12-10T09:57:43;3.17;;;2.38;;
20118;SDS011;10220;42.716;23.306;2022-12-10T10:02:43;2.88;;;2.20;;
20118;SDS011;10220;42.716;23.306;2022-12-10T10:07:35;5.25;;;2.60;;
20118;SDS011;10220;42.716;23.306;2022-12-10T10:10:09;9.50;;;3.20;;
20118;SDS011;10220;42.716;23.306;2022-12-10T10:12:46;5.20;;;3.15;;
20118;SDS011;10220;42.716;23.306;2022-12-10T10:15:13;8.45;;;4.95;;
20118;SDS011;10220;42.716;23.306;2022-12-10T10:17:40;5.90;;;3.67;;
20118;SDS011;10220;42.716;23.306;2022-12-10T10:20:10;7.68;;;3.28;;
20118;SDS011;10220;42.716;23.306;2022-12-10T10:22:37;9.38;;;3.38;;
20118;SDS011;10220;42.716;23.306;2022-12-10T10:25:04;6.05;;;2.55;;
20118;SDS011;10220;42.716;23.306;2022-12-10T10:27:31;7.95;;;4.65;;
20118;SDS011;10220;42.716;23.306;2022-12-10T10:29:59;10.45;;;4.15;;
20118;SDS011;10220;42.716;23.306;2022-12-10T10:32:28;5.97;;;3.03;;
20118;SDS011;10220;42.716;23.306;2022-12-10T10:37:55;2.92;;;2.35;;
20118;SDS011;10220;42.716;23.306;2022-12-10T10:40:25;4.10;;;3.55;;
20118;SDS011;10220;42.716;23.306;2022-12-10T10:42:52;3.30;;;2.55;;
20118;SDS011;10220;42.716;23.306;2022-12-10T10:48:14;3.05;;;2.33;;
20118;SDS011;10220;42.716;23.306;2022-12-10T10:50:45;5.28;;;2.20;;
20118;SDS011;10220;42.716;23.306;2022-12-10T10:53:23;5.13;;;2.00;;
20118;SDS011;10220;42.716;23.306;2022-12-10T10:55:49;4.10;;;2.28;;
20118;SDS011;10220;42.716;23.306;2022-12-10T10:58:18;2.25;;;2.00;;
20118;SDS011;10220;42.716;23.306;2022-12-10T11:01:04;4.20;;;2.38;;
20118;SDS011;10220;42.716;23.306;2022-12-10T11:03:33;3.58;;;2.47;;
20118;SDS011;10220;42.716;23.306;2022-12-10T11:06:00;3.63;;;2.55;;
20118;SDS011;10220;42.716;23.306;2022-12-10T11:08:31;5.18;;;2.67;;
20118;SDS011;10220;42.716;23.306;2022-12-10T11:10:58;4.05;;;2.05;;
20118;SDS011;10220;42.716;23.306;2022-12-10T11:13:32;5.35;;;2.90;;
20118;SDS011;10220;42.716;23.306;2022-12-10T11:16:20;5.90;;;2.15;;
20118;SDS011;10220;42.716;23.306;2022-12-10T11:18:51;6.22;;;1.88;;
20118;SDS011;10220;42.716;23.306;2022-12-10T11:21:21;2.42;;;2.22;;
20118;SDS011;10220;42.716;23.306;2022-12-10T11:23:47;3.58;;;2.60;;
20118;SDS011;10220;42.716;23.306;2022-12-10T11:50:48;9.40;;;4.95;;
20118;SDS011;10220;42.716;23.306;2022-12-10T12:15:06;6.70;;;2.50;;
20118;SDS011;10220;42.716;23.306;2022-12-10T12:17:43;8.20;;;3.92;;
20118;SDS011;10220;42.716;23.306;2022-12-10T12:20:57;4.47;;;3.30;;
20118;SDS011;10220;42.716;23.306;2022-12-10T12:26:11;4.68;;;2.40;;
20118;SDS011;10220;42.716;23.306;2022-12-10T12:28:47;4.40;;;2.00;;
20118;SDS011;10220;42.716;23.306;2022-12-10T12:31:20;3.88;;;2.25;;
20118;SDS011;10220;42.716;23.306;2022-12-10T12:33:51;2.85;;;2.10;;
20118;SDS011;10220;42.716;23.306;2022-12-10T12:36:25;3.30;;;2.05;;
20118;SDS011;10220;42.716;23.306;2022-12-10T12:41:47;4.35;;;2.67;;
20118;SDS011;10220;42.716;23.306;2022-12-10T12:44:34;6.07;;;2.50;;
20118;SDS011;10220;42.716;23.306;2022-12-10T12:47:16;5.15;;;2.95;;
20118;SDS011;10220;42.716;23.306;2022-12-10T12:49:54;4.22;;;2.33;;
20118;SDS011;10220;42.716;23.306;2022-12-10T12:54:54;3.80;;;2.47;;
20118;SDS011;10220;42.716;23.306;2022-12-10T12:57:30;4.00;;;2.55;;
20118;SDS011;10220;42.716;23.306;2022-12-10T13:00:18;3.80;;;2.40;;
20118;SDS011;10220;42.716;23.306;2022-12-10T13:03:00;2.88;;;1.85;;
20118;SDS011;10220;42.716;23.306;2022-12-10T13:05:38;2.55;;;2.13;;
20118;SDS011;10220;42.716;23.306;2022-12-10T13:13:34;4.95;;;2.05;;
20118;SDS011;10220;42.716;23.306;2022-12-10T13:22:06;5.78;;;2.05;;
20118;SDS011;10220;42.716;23.306;2022-12-10T13:25:02;3.30;;;2.20;;
20118;SDS011;10220;42.716;23.306;2022-12-10T13:27:55;10.40;;;6.13;;
20118;SDS011;10220;42.716;23.306;2022-12-10T13:30:33;7.68;;;4.55;;
20118;SDS011;10220;42.716;23.306;2022-12-10T13:35:44;5.18;;;3.30;;
20118;SDS011;10220;42.716;23.306;2022-12-10T13:38:23;10.77;;;3.47;;
20118;SDS011;10220;42.716;23.306;2022-12-10T13:41:00;5.55;;;3.08;;
20118;SDS011;10220;42.716;23.306;2022-12-10T13:43:53;5.05;;;3.70;;
20118;SDS011;10220;42.716;23.306;2022-12-10T13:46:54;8.68;;;4.05;;
20118;SDS011;10220;42.716;23.306;2022-12-10T13:49:27;7.63;;;5.13;;
20118;SDS011;10220;42.716;23.306;2022-12-10T13:59:53;5.05;;;3.45;;
20118;SDS011;10220;42.716;23.306;2022-12-10T14:08:04;4.68;;;3.38;;
20118;SDS011;10220;42.716;23.306;2022-12-10T14:10:33;10.32;;;2.97;;
20118;SDS011;10220;42.716;23.306;2022-12-10T14:13:01;11.05;;;4.70;;
20118;SDS011;10220;42.716;23.306;2022-12-10T14:15:29;4.15;;;3.05;;
20118;SDS011;10220;42.716;23.306;2022-12-10T14:18:16;5.38;;;3.50;;
20118;SDS011;10220;42.716;23.306;2022-12-10T14:20:45;17.88;;;4.43;;
20118;SDS011;10220;42.716;23.306;2022-12-10T14:23:26;6.50;;;4.28;;
20118;SDS011;10220;42.716;23.306;2022-12-10T14:26:43;6.40;;;4.18;;
20118;SDS011;10220;42.716;23.306;2022-12-10T14:28:58;8.63;;;4.38;;
20118;SDS011;10220;42.716;23.306;2022-12-10T14:31:33;8.10;;;4.10;;
20118;SDS011;10220;42.716;23.306;2022-12-10T14:34:03;6.63;;;3.63;;
20118;SDS011;10220;42.716;23.306;2022-12-10T14:36:34;5.95;;;4.22;;
20118;SDS011;10220;42.716;23.306;2022-12-10T14:39:10;4.68;;;3.95;;
20118;SDS011;10220;42.716;23.306;2022-12-10T14:41:39;7.95;;;3.80;;
20118;SDS011;10220;42.716;23.306;2022-12-10T14:44:05;10.48;;;4.70;;
20118;SDS011;10220;42.716;23.306;2022-12-10T14:46:31;8.50;;;4.78;;
20118;SDS011;10220;42.716;23.306;2022-12-10T14:48:57;6.47;;;4.30;;
20118;SDS011;10220;42.716;23.306;2022-12-10T14:51:25;8.48;;;4.55;;
20118;SDS011;10220;42.716;23.306;2022-12-10T14:53:56;8.35;;;4.95;;
20118;SDS011;10220;42.716;23.306;2022-12-10T14:56:29;11.88;;;4.63;;
20118;SDS011;10220;42.716;23.306;2022-12-10T14:59:00;7.90;;;5.00;;
20118;SDS011;10220;42.716;23.306;2022-12-10T15:01:54;8.02;;;4.50;;
20118;SDS011;10220;42.716;23.306;2022-12-10T15:04:21;9.52;;;4.30;;
20118;SDS011;10220;42.716;23.306;2022-12-10T15:06:49;6.28;;;4.82;;
20118;SDS011;10220;42.716;23.306;2022-12-10T15:11:45;7.03;;;4.35;;
20118;SDS011;10220;42.716;23.306;2022-12-10T15:14:19;6.75;;;4.45;;
20118;SDS011;10220;42.716;23.306;2022-12-10T15:16:45;9.57;;;5.65;;
20118;SDS011;10220;42.716;23.306;2022-12-10T15:19:25;10.88;;;5.72;;
20118;SDS011;10220;42.716;23.306;2022-12-10T15:24:43;11.85;;;4.43;;
20118;SDS011;10220;42.716;23.306;2022-12-10T15:29:42;7.00;;;4.63;;
20118;SDS011;10220;42.716;23.306;2022-12-10T15:32:29;10.20;;;5.88;;
20118;SDS011;10220;42.716;23.306;2022-12-10T15:34:55;7.15;;;4.55;;
20118;SDS011;10220;42.716;23.306;2022-12-10T15:37:24;9.20;;;4.10;;
20118;SDS011;10220;42.716;23.306;2022-12-10T15:39:56;10.15;;;4.65;;
20118;SDS011;10220;42.716;23.306;2022-12-10T15:42:42;9.13;;;4.88;;
20118;SDS011;10220;42.716;23.306;2022-12-10T15:47:47;8.77;;;4.40;;
20118;SDS011;10220;42.716;23.306;2022-12-10T15:50:13;7.03;;;3.60;;
20118;SDS011;10220;42.716;23.306;2022-12-10T15:52:39;10.93;;;4.32;;
20118;SDS011;10220;42.716;23.306;2022-12-10T15:55:05;12.07;;;5.88;;
20118;SDS011;10220;42.716;23.306;2022-12-10T15:57:35;7.00;;;4.75;;
20118;SDS011;10220;42.716;23.306;2022-12-10T16:00:05;10.25;;;5.05;;
20118;SDS011;10220;42.716;23.306;2022-12-10T16:02:37;9.68;;;6.43;;
20118;SDS011;10220;42.716;23.306;2022-12-10T16:05:22;10.98;;;5.10;;
20118;SDS011;10220;42.716;23.306;2022-12-10T16:07:51;9.43;;;5.35;;
20118;SDS011;10220;42.716;23.306;2022-12-10T16:10:19;9.27;;;5.45;;
20118;SDS011;10220;42.716;23.306;2022-12-10T16:12:57;8.05;;;5.63;;
20118;SDS011;10220;42.716;23.306;2022-12-10T16:15:25;9.07;;;4.80;;
20118;SDS011;10220;42.716;23.306;2022-12-10T16:17:54;7.45;;;5.05;;
20118;SDS011;10220;42.716;23.306;2022-12-10T16:22:53;13.25;;;6.88;;
20118;SDS011;10220;42.716;23.306;2022-12-10T16:25:20;13.05;;;6.25;;
20118;SDS011;10220;42.716;23.306;2022-12-10T16:27:46;11.65;;;6.90;;
20118;SDS011;10220;42.716;23.306;2022-12-10T16:30:13;15.32;;;6.70;;
20118;SDS011;10220;42.716;23.306;2022-12-10T16:32:39;8.82;;;5.43;;
20118;SDS011;10220;42.716;23.306;2022-12-10T16:35:05;11.50;;;6.28;;
20118;SDS011;10220;42.716;23.306;2022-12-10T16:37:30;7.05;;;5.57;;
20118;SDS011;10220;42.716;23.306;2022-12-10T16:39:56;14.32;;;6.38;;
20118;SDS011;10220;42.716;23.306;2022-12-10T16:42:21;11.20;;;6.80;;
20118;SDS011;10220;42.716;23.306;2022-12-10T16:44:46;10.75;;;5.65;;
20118;SDS011;10220;42.716;23.306;2022-12-10T16:47:12;8.27;;;5.63;;
20118;SDS011;10220;42.716;23.306;2022-12-10T16:49:38;13.30;;;6.63;;
20118;SDS011;10220;42.716;23.306;2022-12-10T16:52:03;17.55;;;5.68;;
20118;SDS011;10220;42.716;23.306;2022-12-10T16:54:29;11.52;;;7.53;;
20118;SDS011;10220;42.716;23.306;2022-12-10T16:56:55;13.48;;;6.47;;